sensor_id;sensor_type;location;lat;lon;timestamp;P1;durP1;ratioP1;P2;durP2;ratioP2
45316;SDS011;31053;55.870;37.592;2023-06-22T00:01:57;6.50;;;3.63;;
45316;SDS011;31053;55.870;37.592;2023-06-22T00:05:02;10.90;;;4.00;;
45316;SDS011;31053;55.870;37.592;2023-06-22T00:08:08;7.73;;;4.00;;
45316;SDS011;31053;55.870;37.592;2023-06-22T00:11:13;12.00;;;3.70;;
45316;SDS011;31053;55.870;37.592;2023-06-22T00:14:18;14.02;;;4.18;;
45316;SDS011;31053;55.870;37.592;2023-06-22T00:17:25;6.65;;;3.60;;
45316;SDS011;31053;55.870;37.592;2023-06-22T00:20:30;8.95;;;4.15;;
45316;SDS011;31053;55.870;37.592;2023-06-22T00:23:35;11.60;;;4.15;;
45316;SDS011;31053;55.870;37.592;2023-06-22T00:26:39;8.15;;;3.67;;
45316;SDS011;31053;55.870;37.592;2023-06-22T00:29:48;7.00;;;3.70;;
45316;SDS011;31053;55.870;37.592;2023-06-22T00:32:53;6.88;;;3.15;;
45316;SDS011;31053;55.870;37.592;2023-06-22T00:35:57;6.03;;;2.75;;
45316;SDS011;31053;55.870;37.592;2023-06-22T00:39:04;7.97;;;3.28;;
45316;SDS011;31053;55.870;37.592;2023-06-22T00:42:10;9.18;;;3.50;;
45316;SDS011;31053;55.870;37.592;2023-06-22T00:45:14;8.38;;;3.75;;
45316;SDS011;31053;55.870;37.592;2023-06-22T00:48:21;9.95;;;3.58;;
45316;SDS011;31053;55.870;37.592;2023-06-22T00:51:26;10.55;;;4.13;;
45316;SDS011;31053;55.870;37.592;2023-06-22T00:54:30;8.52;;;3.35;;
45316;SDS011;31053;55.870;37.592;2023-06-22T00:57:35;5.43;;;3.60;;
45316;SDS011;31053;55.870;37.592;2023-06-22T01:00:42;8.48;;;3.40;;
45316;SDS011;31053;55.870;37.592;2023-06-22T01:03:47;12.38;;;3.47;;
45316;SDS011;31053;55.870;37.592;2023-06-22T01:07:03;8.63;;;3.85;;
45316;SDS011;31053;55.870;37.592;2023-06-22T01:10:29;6.72;;;3.25;;
45316;SDS011;31053;55.870;37.592;2023-06-22T01:13:39;8.20;;;3.75;;
45316;SDS011;31053;55.870;37.592;2023-06-22T01:16:49;9.10;;;3.65;;
45316;SDS011;31053;55.870;37.592;2023-06-22T01:19:56;7.00;;;3.40;;
45316;SDS011;31053;55.870;37.592;2023-06-22T01:29:24;8.77;;;3.67;;
45316;SDS011;31053;55.870;37.592;2023-06-22T01:32:30;9.60;;;4.00;;
45316;SDS011;31053;55.870;37.592;2023-06-22T01:35:37;7.30;;;3.75;;
45316;SDS011;31053;55.870;37.592;2023-06-22T01:38:42;9.60;;;3.67;;
45316;SDS011;31053;55.870;37.592;2023-06-22T01:41:47;6.60;;;3.28;;
45316;SDS011;31053;55.870;37.592;2023-06-22T01:44:53;8.75;;;4.22;;
45316;SDS011;31053;55.870;37.592;2023-06-22T01:47:58;11.15;;;4.20;;
45316;SDS011;31053;55.870;37.592;2023-06-22T01:51:04;14.15;;;4.90;;
45316;SDS011;31053;55.870;37.592;2023-06-22T01:54:08;7.82;;;4.13;;
45316;SDS011;31053;55.870;37.592;2023-06-22T01:57:13;14.38;;;4.97;;
45316;SDS011;31053;55.870;37.592;2023-06-22T02:00:21;8.65;;;4.93;;
45316;SDS011;31053;55.870;37.592;2023-06-22T02:03:31;9.95;;;4.45;;
45316;SDS011;31053;55.870;37.592;2023-06-22T02:06:41;10.25;;;5.15;;
45316;SDS011;31053;55.870;37.592;2023-06-22T02:09:50;10.88;;;4.70;;
45316;SDS011;31053;55.870;37.592;2023-06-22T02:12:56;11.98;;;4.80;;
45316;SDS011;31053;55.870;37.592;2023-06-22T02:16:02;12.18;;;5.47;;
45316;SDS011;31053;55.870;37.592;2023-06-22T02:19:07;14.10;;;5.45;;
45316;SDS011;31053;55.870;37.592;2023-06-22T02:22:12;12.63;;;5.93;;
45316;SDS011;31053;55.870;37.592;2023-06-22T02:25:17;8.57;;;4.95;;
45316;SDS011;31053;55.870;37.592;2023-06-22T02:28:24;13.13;;;4.55;;
45316;SDS011;31053;55.870;37.592;2023-06-22T02:31:30;16.58;;;5.35;;
45316;SDS011;31053;55.870;37.592;2023-06-22T02:34:36;11.70;;;4.90;;
45316;SDS011;31053;55.870;37.592;2023-06-22T02:37:41;9.18;;;4.53;;
45316;SDS011;31053;55.870;37.592;2023-06-22T02:40:46;14.82;;;4.25;;
45316;SDS011;31053;55.870;37.592;2023-06-22T02:43:51;19.80;;;5.25;;
45316;SDS011;31053;55.870;37.592;2023-06-22T02:46:57;7.53;;;4.07;;
45316;SDS011;31053;55.870;37.592;2023-06-22T02:50:03;13.18;;;4.88;;
45316;SDS011;31053;55.870;37.592;2023-06-22T02:53:11;9.90;;;4.68;;
45316;SDS011;31053;55.870;37.592;2023-06-22T02:56:19;13.10;;;5.75;;
45316;SDS011;31053;55.870;37.592;2023-06-22T02:59:30;13.23;;;4.43;;
45316;SDS011;31053;55.870;37.592;2023-06-22T03:02:42;17.67;;;6.20;;
45316;SDS011;31053;55.870;37.592;2023-06-22T03:05:51;14.65;;;4.95;;
45316;SDS011;31053;55.870;37.592;2023-06-22T03:09:04;26.95;;;4.50;;
45316;SDS011;31053;55.870;37.592;2023-06-22T03:12:10;17.73;;;5.13;;
45316;SDS011;31053;55.870;37.592;2023-06-22T03:15:23;13.63;;;4.80;;
45316;SDS011;31053;55.870;37.592;2023-06-22T03:18:29;9.68;;;3.63;;
45316;SDS011;31053;55.870;37.592;2023-06-22T03:21:33;15.70;;;5.22;;
45316;SDS011;31053;55.870;37.592;2023-06-22T03:24:38;16.33;;;5.97;;
45316;SDS011;31053;55.870;37.592;2023-06-22T03:27:44;12.05;;;5.40;;
45316;SDS011;31053;55.870;37.592;2023-06-22T03:30:49;15.70;;;4.68;;
45316;SDS011;31053;55.870;37.592;2023-06-22T03:33:55;16.85;;;6.57;;
45316;SDS011;31053;55.870;37.592;2023-06-22T03:37:09;14.60;;;5.00;;
45316;SDS011;31053;55.870;37.592;2023-06-22T03:40:17;13.82;;;5.75;;
45316;SDS011;31053;55.870;37.592;2023-06-22T03:43:23;12.15;;;4.70;;
45316;SDS011;31053;55.870;37.592;2023-06-22T03:46:28;17.50;;;5.55;;
45316;SDS011;31053;55.870;37.592;2023-06-22T03:49:33;8.70;;;3.65;;
45316;SDS011;31053;55.870;37.592;2023-06-22T03:52:40;10.02;;;4.03;;
45316;SDS011;31053;55.870;37.592;2023-06-22T03:55:48;7.63;;;3.67;;
45316;SDS011;31053;55.870;37.592;2023-06-22T03:58:54;6.93;;;2.95;;
45316;SDS011;31053;55.870;37.592;2023-06-22T04:01:59;6.05;;;2.80;;
45316;SDS011;31053;55.870;37.592;2023-06-22T04:05:03;6.43;;;3.35;;
45316;SDS011;31053;55.870;37.592;2023-06-22T04:08:10;5.88;;;3.08;;
45316;SDS011;31053;55.870;37.592;2023-06-22T04:11:16;8.85;;;2.20;;
45316;SDS011;31053;55.870;37.592;2023-06-22T04:14:22;6.28;;;2.95;;
45316;SDS011;31053;55.870;37.592;2023-06-22T04:17:27;14.57;;;2.20;;
45316;SDS011;31053;55.870;37.592;2023-06-22T04:20:31;12.02;;;2.97;;
45316;SDS011;31053;55.870;37.592;2023-06-22T04:23:36;7.45;;;2.22;;
45316;SDS011;31053;55.870;37.592;2023-06-22T04:31:59;5.40;;;2.35;;
45316;SDS011;31053;55.870;37.592;2023-06-22T04:36:57;3.65;;;2.28;;
45316;SDS011;31053;55.870;37.592;2023-06-22T04:40:03;7.78;;;2.72;;
45316;SDS011;31053;55.870;37.592;2023-06-22T04:44:34;10.02;;;2.90;;
45316;SDS011;31053;55.870;37.592;2023-06-22T04:47:50;8.15;;;2.60;;
45316;SDS011;31053;55.870;37.592;2023-06-22T04:54:36;6.70;;;2.75;;
45316;SDS011;31053;55.870;37.592;2023-06-22T04:57:42;11.10;;;2.40;;
45316;SDS011;31053;55.870;37.592;2023-06-22T05:00:52;9.30;;;2.72;;
45316;SDS011;31053;55.870;37.592;2023-06-22T05:40:40;4.32;;;2.40;;
45316;SDS011;31053;55.870;37.592;2023-06-22T05:43:46;6.75;;;2.65;;
45316;SDS011;31053;55.870;37.592;2023-06-22T05:46:51;4.57;;;2.47;;
45316;SDS011;31053;55.870;37.592;2023-06-22T05:49:58;6.50;;;3.25;;
45316;SDS011;31053;55.870;37.592;2023-06-22T05:53:04;6.97;;;2.80;;
45316;SDS011;31053;55.870;37.592;2023-06-22T05:56:08;4.88;;;2.47;;
45316;SDS011;31053;55.870;37.592;2023-06-22T05:59:14;3.97;;;2.50;;
45316;SDS011;31053;55.870;37.592;2023-06-22T06:02:19;4.10;;;2.03;;
45316;SDS011;31053;55.870;37.592;2023-06-22T06:05:23;4.82;;;2.40;;
45316;SDS011;31053;55.870;37.592;2023-06-22T06:08:29;8.15;;;2.80;;
45316;SDS011;31053;55.870;37.592;2023-06-22T06:11:36;4.63;;;2.60;;
45316;SDS011;31053;55.870;37.592;2023-06-22T06:14:41;3.33;;;2.53;;
45316;SDS011;31053;55.870;37.592;2023-06-22T06:17:49;8.85;;;3.13;;
45316;SDS011;31053;55.870;37.592;2023-06-22T06:20:55;9.85;;;3.05;;
45316;SDS011;31053;55.870;37.592;2023-06-22T06:24:00;7.28;;;2.50;;
45316;SDS011;31053;55.870;37.592;2023-06-22T06:27:06;7.28;;;2.75;;
45316;SDS011;31053;55.870;37.592;2023-06-22T06:30:18;5.65;;;2.50;;
45316;SDS011;31053;55.870;37.592;2023-06-22T06:33:24;9.38;;;2.58;;
45316;SDS011;31053;55.870;37.592;2023-06-22T06:36:28;9.30;;;3.08;;
45316;SDS011;31053;55.870;37.592;2023-06-22T06:39:33;7.13;;;2.78;;
45316;SDS011;31053;55.870;37.592;2023-06-22T06:42:38;5.85;;;2.40;;
45316;SDS011;31053;55.870;37.592;2023-06-22T06:45:49;5.93;;;2.58;;
45316;SDS011;31053;55.870;37.592;2023-06-22T06:48:54;4.22;;;2.78;;
45316;SDS011;31053;55.870;37.592;2023-06-22T06:51:58;11.18;;;3.03;;
45316;SDS011;31053;55.870;37.592;2023-06-22T06:55:04;12.70;;;2.95;;
45316;SDS011;31053;55.870;37.592;2023-06-22T06:57:55;3.22;;;2.40;;
45316;SDS011;31053;55.870;37.592;2023-06-22T07:01:00;3.72;;;1.90;;
45316;SDS011;31053;55.870;37.592;2023-06-22T07:04:06;6.85;;;2.00;;
45316;SDS011;31053;55.870;37.592;2023-06-22T07:07:12;8.68;;;2.50;;
45316;SDS011;31053;55.870;37.592;2023-06-22T07:10:18;4.53;;;2.67;;
45316;SDS011;31053;55.870;37.592;2023-06-22T07:13:27;12.40;;;3.38;;
45316;SDS011;31053;55.870;37.592;2023-06-22T07:16:33;4.60;;;1.80;;
45316;SDS011;31053;55.870;37.592;2023-06-22T07:19:40;5.93;;;2.22;;
45316;SDS011;31053;55.870;37.592;2023-06-22T07:22:49;3.05;;;1.90;;
45316;SDS011;31053;55.870;37.592;2023-06-22T07:25:53;3.85;;;2.70;;
45316;SDS011;31053;55.870;37.592;2023-06-22T07:28:58;8.27;;;2.08;;
45316;SDS011;31053;55.870;37.592;2023-06-22T07:32:03;6.80;;;2.55;;
45316;SDS011;31053;55.870;37.592;2023-06-22T07:35:09;5.82;;;1.88;;
45316;SDS011;31053;55.870;37.592;2023-06-22T07:41:22;9.27;;;1.90;;
45316;SDS011;31053;55.870;37.592;2023-06-22T07:45:13;2.28;;;1.90;;
45316;SDS011;31053;55.870;37.592;2023-06-22T07:48:21;9.98;;;2.20;;
45316;SDS011;31053;55.870;37.592;2023-06-22T07:51:29;2.70;;;1.77;;
45316;SDS011;31053;55.870;37.592;2023-06-22T07:54:37;7.45;;;1.75;;
45316;SDS011;31053;55.870;37.592;2023-06-22T07:57:46;4.63;;;1.92;;
45316;SDS011;31053;55.870;37.592;2023-06-22T08:00:53;4.68;;;1.63;;
45316;SDS011;31053;55.870;37.592;2023-06-22T08:03:58;11.75;;;1.67;;
45316;SDS011;31053;55.870;37.592;2023-06-22T08:07:04;6.47;;;1.60;;
45316;SDS011;31053;55.870;37.592;2023-06-22T08:10:12;9.65;;;2.25;;
45316;SDS011;31053;55.870;37.592;2023-06-22T08:13:17;6.22;;;2.10;;
45316;SDS011;31053;55.870;37.592;2023-06-22T08:16:22;7.22;;;2.00;;
45316;SDS011;31053;55.870;37.592;2023-06-22T08:19:26;4.55;;;2.10;;
45316;SDS011;31053;55.870;37.592;2023-06-22T08:22:32;3.47;;;2.00;;
45316;SDS011;31053;55.870;37.592;2023-06-22T08:25:37;6.07;;;2.05;;
45316;SDS011;31053;55.870;37.592;2023-06-22T08:28:42;4.90;;;1.77;;
45316;SDS011;31053;55.870;37.592;2023-06-22T08:31:47;10.73;;;2.97;;
45316;SDS011;31053;55.870;37.592;2023-06-22T08:34:52;3.28;;;1.67;;
45316;SDS011;31053;55.870;37.592;2023-06-22T08:37:57;10.60;;;2.08;;
45316;SDS011;31053;55.870;37.592;2023-06-22T08:41:04;15.90;;;2.55;;
45316;SDS011;31053;55.870;37.592;2023-06-22T08:44:09;2.72;;;1.75;;
45316;SDS011;31053;55.870;37.592;2023-06-22T08:50:13;3.10;;;1.83;;
45316;SDS011;31053;55.870;37.592;2023-06-22T09:14:15;2.00;;;1.50;;
45316;SDS011;31053;55.870;37.592;2023-06-22T09:20:44;8.95;;;3.00;;
45316;SDS011;31053;55.870;37.592;2023-06-22T09:28:11;8.90;;;1.80;;
45316;SDS011;31053;55.870;37.592;2023-06-22T11:19:16;3.50;;;2.10;;
45316;SDS011;31053;55.870;37.592;2023-06-22T11:23:23;1.75;;;1.60;;
45316;SDS011;31053;55.870;37.592;2023-06-22T11:28:23;7.47;;;1.90;;
45316;SDS011;31053;55.870;37.592;2023-06-22T12:00:48;3.65;;;1.80;;
45316;SDS011;31053;55.870;37.592;2023-06-22T12:03:57;3.22;;;2.17;;
45316;SDS011;31053;55.870;37.592;2023-06-22T12:19:49;5.13;;;2.83;;
45316;SDS011;31053;55.870;37.592;2023-06-22T12:42:48;5.32;;;2.83;;
45316;SDS011;31053;55.870;37.592;2023-06-22T12:45:30;3.20;;;2.50;;
45316;SDS011;31053;55.870;37.592;2023-06-22T12:48:39;9.57;;;2.63;;
45316;SDS011;31053;55.870;37.592;2023-06-22T12:53:19;4.60;;;2.90;;
45316;SDS011;31053;55.870;37.592;2023-06-22T12:56:28;12.10;;;2.95;;
45316;SDS011;31053;55.870;37.592;2023-06-22T12:59:34;6.88;;;4.40;;
45316;SDS011;31053;55.870;37.592;2023-06-22T13:02:39;4.68;;;3.25;;
45316;SDS011;31053;55.870;37.592;2023-06-22T13:05:44;5.47;;;3.40;;
45316;SDS011;31053;55.870;37.592;2023-06-22T13:08:53;3.20;;;2.35;;
45316;SDS011;31053;55.870;37.592;2023-06-22T13:11:57;4.38;;;2.70;;
45316;SDS011;31053;55.870;37.592;2023-06-22T13:15:04;7.07;;;3.15;;
45316;SDS011;31053;55.870;37.592;2023-06-22T13:18:11;8.43;;;4.53;;
45316;SDS011;31053;55.870;37.592;2023-06-22T13:21:15;8.40;;;5.93;;
45316;SDS011;31053;55.870;37.592;2023-06-22T13:24:25;8.73;;;3.65;;
45316;SDS011;31053;55.870;37.592;2023-06-22T13:27:32;6.53;;;3.53;;
45316;SDS011;31053;55.870;37.592;2023-06-22T13:30:37;6.88;;;4.00;;
45316;SDS011;31053;55.870;37.592;2023-06-22T13:39:16;5.57;;;2.63;;
45316;SDS011;31053;55.870;37.592;2023-06-22T13:42:21;3.88;;;3.05;;
45316;SDS011;31053;55.870;37.592;2023-06-22T13:45:28;7.05;;;3.45;;
45316;SDS011;31053;55.870;37.592;2023-06-22T13:51:39;5.43;;;2.30;;
45316;SDS011;31053;55.870;37.592;2023-06-22T13:54:44;5.38;;;2.78;;
45316;SDS011;31053;55.870;37.592;2023-06-22T13:57:49;4.85;;;2.50;;
45316;SDS011;31053;55.870;37.592;2023-06-22T14:00:53;3.00;;;2.35;;
45316;SDS011;31053;55.870;37.592;2023-06-22T14:03:58;4.85;;;2.20;;
45316;SDS011;31053;55.870;37.592;2023-06-22T14:07:03;4.63;;;2.70;;
45316;SDS011;31053;55.870;37.592;2023-06-22T14:10:09;3.50;;;2.50;;
45316;SDS011;31053;55.870;37.592;2023-06-22T14:13:14;3.38;;;2.28;;
45316;SDS011;31053;55.870;37.592;2023-06-22T14:16:19;5.22;;;2.83;;
45316;SDS011;31053;55.870;37.592;2023-06-22T14:19:24;3.45;;;2.45;;
45316;SDS011;31053;55.870;37.592;2023-06-22T14:22:29;5.32;;;3.00;;
45316;SDS011;31053;55.870;37.592;2023-06-22T14:25:33;6.20;;;5.05;;
45316;SDS011;31053;55.870;37.592;2023-06-22T14:28:38;3.58;;;3.00;;
45316;SDS011;31053;55.870;37.592;2023-06-22T14:31:45;9.02;;;4.18;;
45316;SDS011;31053;55.870;37.592;2023-06-22T14:34:51;9.27;;;4.55;;
45316;SDS011;31053;55.870;37.592;2023-06-22T14:37:56;8.27;;;3.35;;
45316;SDS011;31053;55.870;37.592;2023-06-22T14:41:04;5.68;;;2.70;;
45316;SDS011;31053;55.870;37.592;2023-06-22T14:44:08;4.32;;;2.40;;
45316;SDS011;31053;55.870;37.592;2023-06-22T14:47:14;3.80;;;2.50;;
45316;SDS011;31053;55.870;37.592;2023-06-22T14:50:21;6.40;;;3.33;;
45316;SDS011;31053;55.870;37.592;2023-06-22T14:53:26;7.28;;;3.45;;
45316;SDS011;31053;55.870;37.592;2023-06-22T14:56:32;6.00;;;2.65;;
45316;SDS011;31053;55.870;37.592;2023-06-22T14:59:46;3.75;;;2.75;;
45316;SDS011;31053;55.870;37.592;2023-06-22T15:03:01;6.45;;;2.78;;
45316;SDS011;31053;55.870;37.592;2023-06-22T15:06:10;3.30;;;2.30;;
45316;SDS011;31053;55.870;37.592;2023-06-22T15:09:15;6.15;;;3.53;;
45316;SDS011;31053;55.870;37.592;2023-06-22T15:12:20;15.65;;;9.88;;
45316;SDS011;31053;55.870;37.592;2023-06-22T15:15:25;11.38;;;5.25;;
45316;SDS011;31053;55.870;37.592;2023-06-22T15:18:30;6.07;;;3.65;;
45316;SDS011;31053;55.870;37.592;2023-06-22T15:21:34;6.80;;;3.22;;
45316;SDS011;31053;55.870;37.592;2023-06-22T15:24:39;5.07;;;2.80;;
45316;SDS011;31053;55.870;37.592;2023-06-22T15:27:44;7.55;;;4.75;;
45316;SDS011;31053;55.870;37.592;2023-06-22T15:30:49;4.93;;;3.00;;
45316;SDS011;31053;55.870;37.592;2023-06-22T15:33:55;4.35;;;2.63;;
45316;SDS011;31053;55.870;37.592;2023-06-22T15:37:00;9.45;;;5.53;;
45316;SDS011;31053;55.870;37.592;2023-06-22T15:40:05;11.45;;;3.58;;
45316;SDS011;31053;55.870;37.592;2023-06-22T15:43:11;9.25;;;2.88;;
45316;SDS011;31053;55.870;37.592;2023-06-22T15:46:19;12.32;;;2.92;;
45316;SDS011;31053;55.870;37.592;2023-06-22T15:49:25;12.73;;;2.37;;
45316;SDS011;31053;55.870;37.592;2023-06-22T15:55:35;9.27;;;2.65;;
45316;SDS011;31053;55.870;37.592;2023-06-22T15:58:41;2.92;;;1.88;;
45316;SDS011;31053;55.870;37.592;2023-06-22T16:01:46;8.73;;;4.18;;
45316;SDS011;31053;55.870;37.592;2023-06-22T16:04:51;17.38;;;3.28;;
45316;SDS011;31053;55.870;37.592;2023-06-22T16:07:58;12.25;;;2.80;;
45316;SDS011;31053;55.870;37.592;2023-06-22T16:11:03;3.88;;;1.98;;
45316;SDS011;31053;55.870;37.592;2023-06-22T16:14:08;7.00;;;2.43;;
45316;SDS011;31053;55.870;37.592;2023-06-22T16:17:14;7.68;;;2.55;;
45316;SDS011;31053;55.870;37.592;2023-06-22T16:20:20;15.07;;;3.00;;
45316;SDS011;31053;55.870;37.592;2023-06-22T16:23:25;7.90;;;2.40;;
45316;SDS011;31053;55.870;37.592;2023-06-22T16:26:30;8.05;;;3.00;;
45316;SDS011;31053;55.870;37.592;2023-06-22T16:29:37;6.53;;;2.38;;
45316;SDS011;31053;55.870;37.592;2023-06-22T16:32:55;6.60;;;2.55;;
45316;SDS011;31053;55.870;37.592;2023-06-22T16:36:03;5.45;;;3.00;;
45316;SDS011;31053;55.870;37.592;2023-06-22T16:39:08;5.47;;;2.90;;
45316;SDS011;31053;55.870;37.592;2023-06-22T16:42:15;9.68;;;2.72;;
45316;SDS011;31053;55.870;37.592;2023-06-22T16:45:22;6.63;;;2.80;;
45316;SDS011;31053;55.870;37.592;2023-06-22T16:48:26;8.02;;;2.47;;
45316;SDS011;31053;55.870;37.592;2023-06-22T16:51:32;3.95;;;2.45;;
45316;SDS011;31053;55.870;37.592;2023-06-22T16:54:37;6.88;;;2.85;;
45316;SDS011;31053;55.870;37.592;2023-06-22T16:57:42;7.15;;;2.35;;
45316;SDS011;31053;55.870;37.592;2023-06-22T17:00:53;12.00;;;2.47;;
45316;SDS011;31053;55.870;37.592;2023-06-22T17:04:08;12.38;;;2.05;;
45316;SDS011;31053;55.870;37.592;2023-06-22T17:07:14;6.15;;;2.47;;
45316;SDS011;31053;55.870;37.592;2023-06-22T17:10:23;7.88;;;2.90;;
45316;SDS011;31053;55.870;37.592;2023-06-22T17:13:28;4.65;;;2.13;;
45316;SDS011;31053;55.870;37.592;2023-06-22T17:16:32;6.13;;;2.95;;
45316;SDS011;31053;55.870;37.592;2023-06-22T17:19:37;3.85;;;2.42;;
45316;SDS011;31053;55.870;37.592;2023-06-22T17:22:43;8.43;;;2.58;;
45316;SDS011;31053;55.870;37.592;2023-06-22T17:25:50;7.68;;;2.53;;
45316;SDS011;31053;55.870;37.592;2023-06-22T17:28:56;6.00;;;2.88;;
45316;SDS011;31053;55.870;37.592;2023-06-22T17:32:06;14.95;;;2.67;;
45316;SDS011;31053;55.870;37.592;2023-06-22T17:35:10;14.05;;;2.35;;
45316;SDS011;31053;55.870;37.592;2023-06-22T17:38:21;9.73;;;2.53;;
45316;SDS011;31053;55.870;37.592;2023-06-22T17:41:33;10.27;;;2.40;;
45316;SDS011;31053;55.870;37.592;2023-06-22T17:44:37;12.73;;;2.17;;
45316;SDS011;31053;55.870;37.592;2023-06-22T17:47:45;2.85;;;1.42;;
45316;SDS011;31053;55.870;37.592;2023-06-22T17:50:54;7.28;;;2.08;;
45316;SDS011;31053;55.870;37.592;2023-06-22T17:54:00;8.98;;;1.67;;
45316;SDS011;31053;55.870;37.592;2023-06-22T17:57:16;6.10;;;2.20;;
45316;SDS011;31053;55.870;37.592;2023-06-22T18:00:21;4.57;;;2.33;;
45316;SDS011;31053;55.870;37.592;2023-06-22T18:03:26;2.35;;;1.77;;
45316;SDS011;31053;55.870;37.592;2023-06-22T18:06:33;1.50;;;1.23;;
45316;SDS011;31053;55.870;37.592;2023-06-22T18:09:58;8.18;;;2.90;;
45316;SDS011;31053;55.870;37.592;2023-06-22T18:13:09;5.97;;;1.90;;
45316;SDS011;31053;55.870;37.592;2023-06-22T18:16:15;8.00;;;2.33;;
45316;SDS011;31053;55.870;37.592;2023-06-22T18:19:19;7.00;;;2.42;;
45316;SDS011;31053;55.870;37.592;2023-06-22T18:22:25;4.55;;;1.70;;
45316;SDS011;31053;55.870;37.592;2023-06-22T18:25:32;6.65;;;2.28;;
45316;SDS011;31053;55.870;37.592;2023-06-22T18:28:38;5.15;;;2.08;;
45316;SDS011;31053;55.870;37.592;2023-06-22T18:31:47;3.65;;;2.15;;
45316;SDS011;31053;55.870;37.592;2023-06-22T18:34:52;4.68;;;2.38;;
45316;SDS011;31053;55.870;37.592;2023-06-22T18:37:58;9.02;;;2.28;;
45316;SDS011;31053;55.870;37.592;2023-06-22T18:41:03;5.50;;;2.30;;
45316;SDS011;31053;55.870;37.592;2023-06-22T18:44:11;6.45;;;2.75;;
45316;SDS011;31053;55.870;37.592;2023-06-22T18:47:29;11.07;;;4.32;;
45316;SDS011;31053;55.870;37.592;2023-06-22T18:50:44;7.63;;;4.30;;
45316;SDS011;31053;55.870;37.592;2023-06-22T18:54:03;5.32;;;3.22;;
45316;SDS011;31053;55.870;37.592;2023-06-22T18:57:27;6.88;;;3.17;;
45316;SDS011;31053;55.870;37.592;2023-06-22T19:00:44;9.63;;;4.75;;
45316;SDS011;31053;55.870;37.592;2023-06-22T19:03:56;16.58;;;3.22;;
45316;SDS011;31053;55.870;37.592;2023-06-22T19:07:05;11.75;;;3.65;;
45316;SDS011;31053;55.870;37.592;2023-06-22T19:10:20;8.63;;;5.95;;
45316;SDS011;31053;55.870;37.592;2023-06-22T19:13:26;6.65;;;3.30;;
45316;SDS011;31053;55.870;37.592;2023-06-22T19:16:32;6.80;;;3.90;;
45316;SDS011;31053;55.870;37.592;2023-06-22T19:19:37;12.77;;;6.20;;
45316;SDS011;31053;55.870;37.592;2023-06-22T19:22:54;5.97;;;3.10;;
45316;SDS011;31053;55.870;37.592;2023-06-22T19:26:01;6.82;;;3.42;;
45316;SDS011;31053;55.870;37.592;2023-06-22T19:29:16;10.00;;;3.03;;
45316;SDS011;31053;55.870;37.592;2023-06-22T19:32:20;7.20;;;2.90;;
45316;SDS011;31053;55.870;37.592;2023-06-22T19:35:26;6.80;;;2.50;;
45316;SDS011;31053;55.870;37.592;2023-06-22T19:38:31;9.10;;;3.30;;
45316;SDS011;31053;55.870;37.592;2023-06-22T19:41:37;6.47;;;2.50;;
45316;SDS011;31053;55.870;37.592;2023-06-22T19:44:43;4.20;;;2.38;;
45316;SDS011;31053;55.870;37.592;2023-06-22T19:47:49;7.25;;;2.67;;
45316;SDS011;31053;55.870;37.592;2023-06-22T19:50:56;7.25;;;4.40;;
45316;SDS011;31053;55.870;37.592;2023-06-22T19:54:08;4.25;;;2.85;;
45316;SDS011;31053;55.870;37.592;2023-06-22T19:57:16;8.15;;;2.58;;
45316;SDS011;31053;55.870;37.592;2023-06-22T20:00:21;8.80;;;2.38;;
45316;SDS011;31053;55.870;37.592;2023-06-22T20:03:27;5.90;;;2.45;;
45316;SDS011;31053;55.870;37.592;2023-06-22T20:06:36;4.63;;;2.17;;
45316;SDS011;31053;55.870;37.592;2023-06-22T20:10:14;3.78;;;2.42;;
45316;SDS011;31053;55.870;37.592;2023-06-22T20:13:26;3.25;;;2.08;;
45316;SDS011;31053;55.870;37.592;2023-06-22T20:16:45;5.18;;;2.90;;
45316;SDS011;31053;55.870;37.592;2023-06-22T20:20:03;4.05;;;2.90;;
45316;SDS011;31053;55.870;37.592;2023-06-22T20:23:09;8.43;;;2.87;;
45316;SDS011;31053;55.870;37.592;2023-06-22T20:26:20;7.45;;;2.63;;
45316;SDS011;31053;55.870;37.592;2023-06-22T20:29:29;3.28;;;2.28;;
45316;SDS011;31053;55.870;37.592;2023-06-22T20:32:57;7.88;;;2.50;;
45316;SDS011;31053;55.870;37.592;2023-06-22T20:36:11;8.10;;;3.10;;
45316;SDS011;31053;55.870;37.592;2023-06-22T20:39:23;8.85;;;2.33;;
45316;SDS011;31053;55.870;37.592;2023-06-22T20:42:28;5.57;;;1.92;;
45316;SDS011;31053;55.870;37.592;2023-06-22T20:45:35;5.13;;;2.17;;
45316;SDS011;31053;55.870;37.592;2023-06-22T20:48:42;9.50;;;3.22;;
45316;SDS011;31053;55.870;37.592;2023-06-22T20:51:53;4.20;;;2.63;;
45316;SDS011;31053;55.870;37.592;2023-06-22T20:54:58;6.15;;;3.45;;
45316;SDS011;31053;55.870;37.592;2023-06-22T20:58:06;13.20;;;3.17;;
45316;SDS011;31053;55.870;37.592;2023-06-22T21:01:13;7.43;;;2.95;;
45316;SDS011;31053;55.870;37.592;2023-06-22T21:04:22;7.85;;;3.63;;
45316;SDS011;31053;55.870;37.592;2023-06-22T21:07:28;9.60;;;3.05;;
45316;SDS011;31053;55.870;37.592;2023-06-22T21:10:32;4.05;;;2.33;;
45316;SDS011;31053;55.870;37.592;2023-06-22T21:13:41;5.93;;;3.22;;
45316;SDS011;31053;55.870;37.592;2023-06-22T21:16:47;15.60;;;3.75;;
45316;SDS011;31053;55.870;37.592;2023-06-22T21:19:54;6.80;;;3.00;;
45316;SDS011;31053;55.870;37.592;2023-06-22T21:22:59;8.05;;;3.00;;
45316;SDS011;31053;55.870;37.592;2023-06-22T21:26:08;14.38;;;3.47;;
45316;SDS011;31053;55.870;37.592;2023-06-22T21:29:13;4.82;;;2.63;;
45316;SDS011;31053;55.870;37.592;2023-06-22T21:32:17;8.20;;;3.25;;
45316;SDS011;31053;55.870;37.592;2023-06-22T21:35:22;8.50;;;3.25;;
45316;SDS011;31053;55.870;37.592;2023-06-22T21:38:26;7.00;;;3.35;;
45316;SDS011;31053;55.870;37.592;2023-06-22T21:41:31;9.18;;;3.65;;
45316;SDS011;31053;55.870;37.592;2023-06-22T21:44:35;9.55;;;3.85;;
45316;SDS011;31053;55.870;37.592;2023-06-22T21:47:40;6.47;;;2.85;;
45316;SDS011;31053;55.870;37.592;2023-06-22T21:50:45;9.43;;;3.53;;
45316;SDS011;31053;55.870;37.592;2023-06-22T21:53:50;6.43;;;4.32;;
45316;SDS011;31053;55.870;37.592;2023-06-22T21:56:54;8.18;;;3.60;;
45316;SDS011;31053;55.870;37.592;2023-06-22T21:59:59;6.43;;;3.38;;
45316;SDS011;31053;55.870;37.592;2023-06-22T22:03:04;9.50;;;3.90;;
45316;SDS011;31053;55.870;37.592;2023-06-22T22:06:11;18.00;;;3.17;;
45316;SDS011;31053;55.870;37.592;2023-06-22T22:09:18;5.70;;;3.33;;
45316;SDS011;31053;55.870;37.592;2023-06-22T22:12:24;9.13;;;4.32;;
45316;SDS011;31053;55.870;37.592;2023-06-22T22:15:31;5.47;;;3.47;;
45316;SDS011;31053;55.870;37.592;2023-06-22T22:18:37;6.47;;;3.40;;
45316;SDS011;31053;55.870;37.592;2023-06-22T22:21:42;11.18;;;4.07;;
45316;SDS011;31053;55.870;37.592;2023-06-22T22:24:47;13.02;;;4.65;;
45316;SDS011;31053;55.870;37.592;2023-06-22T22:27:52;7.00;;;4.00;;
45316;SDS011;31053;55.870;37.592;2023-06-22T22:31:01;6.40;;;3.33;;
45316;SDS011;31053;55.870;37.592;2023-06-22T22:34:06;11.88;;;3.92;;
45316;SDS011;31053;55.870;37.592;2023-06-22T22:37:13;7.80;;;4.20;;
45316;SDS011;31053;55.870;37.592;2023-06-22T22:40:19;13.10;;;4.80;;
45316;SDS011;31053;55.870;37.592;2023-06-22T22:43:24;7.47;;;3.28;;
45316;SDS011;31053;55.870;37.592;2023-06-22T22:46:29;5.95;;;3.58;;
45316;SDS011;31053;55.870;37.592;2023-06-22T22:49:34;12.30;;;3.97;;
45316;SDS011;31053;55.870;37.592;2023-06-22T22:52:39;6.65;;;3.38;;
45316;SDS011;31053;55.870;37.592;2023-06-22T22:55:44;14.43;;;3.72;;
45316;SDS011;31053;55.870;37.592;2023-06-22T22:58:54;6.75;;;3.45;;
45316;SDS011;31053;55.870;37.592;2023-06-22T23:01:59;11.13;;;3.70;;